sensor_id;sensor_type;location;lat;lon;timestamp;P1;durP1;ratioP1;P2;durP2;ratioP2
21309;SDS011;10814;51.722;8.772;2024-03-02T00:00:38;10.32;;;7.97;;
21309;SDS011;10814;51.722;8.772;2024-03-02T00:03:04;10.73;;;7.57;;
21309;SDS011;10814;51.722;8.772;2024-03-02T00:05:32;10.68;;;7.63;;
21309;SDS011;10814;51.722;8.772;2024-03-02T00:07:57;10.18;;;7.30;;
21309;SDS011;10814;51.722;8.772;2024-03-02T00:10:25;11.35;;;7.88;;
21309;SDS011;10814;51.722;8.772;2024-03-02T00:12:55;11.00;;;7.78;;
21309;SDS011;10814;51.722;8.772;2024-03-02T00:17:59;10.38;;;8.10;;
21309;SDS011;10814;51.722;8.772;2024-03-02T00:20:25;10.18;;;8.05;;
21309;SDS011;10814;51.722;8.772;2024-03-02T00:23:06;11.57;;;8.35;;
21309;SDS011;10814;51.722;8.772;2024-03-02T00:25:40;10.95;;;7.95;;
21309;SDS011;10814;51.722;8.772;2024-03-02T00:28:13;11.23;;;8.45;;
21309;SDS011;10814;51.722;8.772;2024-03-02T00:36:01;10.27;;;7.82;;
21309;SDS011;10814;51.722;8.772;2024-03-02T00:38:28;12.60;;;8.20;;
21309;SDS011;10814;51.722;8.772;2024-03-02T00:40:55;10.35;;;8.43;;
21309;SDS011;10814;51.722;8.772;2024-03-02T00:43:42;10.23;;;7.50;;
21309;SDS011;10814;51.722;8.772;2024-03-02T00:46:11;10.60;;;7.93;;
21309;SDS011;10814;51.722;8.772;2024-03-02T00:48:38;12.43;;;8.07;;
21309;SDS011;10814;51.722;8.772;2024-03-02T00:51:09;10.18;;;7.38;;
21309;SDS011;10814;51.722;8.772;2024-03-02T00:53:35;10.05;;;7.50;;
21309;SDS011;10814;51.722;8.772;2024-03-02T00:56:00;9.77;;;7.78;;
21309;SDS011;10814;51.722;8.772;2024-03-02T00:58:26;10.85;;;7.97;;
21309;SDS011;10814;51.722;8.772;2024-03-02T01:00:52;9.68;;;7.55;;
21309;SDS011;10814;51.722;8.772;2024-03-02T01:03:17;9.98;;;7.65;;
21309;SDS011;10814;51.722;8.772;2024-03-02T01:05:44;10.65;;;7.93;;
21309;SDS011;10814;51.722;8.772;2024-03-02T01:08:10;10.57;;;8.05;;
21309;SDS011;10814;51.722;8.772;2024-03-02T01:10:35;11.10;;;8.05;;
21309;SDS011;10814;51.722;8.772;2024-03-02T01:13:01;10.52;;;8.05;;
21309;SDS011;10814;51.722;8.772;2024-03-02T01:15:27;11.27;;;8.07;;
21309;SDS011;10814;51.722;8.772;2024-03-02T01:17:53;9.55;;;7.88;;
21309;SDS011;10814;51.722;8.772;2024-03-02T01:20:19;10.75;;;8.32;;
21309;SDS011;10814;51.722;8.772;2024-03-02T01:22:45;11.13;;;7.70;;
21309;SDS011;10814;51.722;8.772;2024-03-02T01:25:10;10.40;;;8.18;;
21309;SDS011;10814;51.722;8.772;2024-03-02T01:27:36;11.27;;;8.40;;
21309;SDS011;10814;51.722;8.772;2024-03-02T01:30:01;12.20;;;8.60;;
21309;SDS011;10814;51.722;8.772;2024-03-02T01:32:27;11.15;;;8.32;;
21309;SDS011;10814;51.722;8.772;2024-03-02T01:34:53;12.10;;;8.15;;
21309;SDS011;10814;51.722;8.772;2024-03-02T01:37:18;12.50;;;8.82;;
21309;SDS011;10814;51.722;8.772;2024-03-02T01:39:44;11.27;;;8.38;;
21309;SDS011;10814;51.722;8.772;2024-03-02T01:42:10;9.90;;;7.78;;
21309;SDS011;10814;51.722;8.772;2024-03-02T01:44:39;12.10;;;8.13;;
21309;SDS011;10814;51.722;8.772;2024-03-02T01:47:05;12.57;;;8.82;;
21309;SDS011;10814;51.722;8.772;2024-03-02T01:49:30;12.57;;;8.43;;
21309;SDS011;10814;51.722;8.772;2024-03-02T01:51:58;11.23;;;8.60;;
21309;SDS011;10814;51.722;8.772;2024-03-02T01:54:23;12.18;;;9.55;;
21309;SDS011;10814;51.722;8.772;2024-03-02T01:56:49;11.05;;;8.30;;
21309;SDS011;10814;51.722;8.772;2024-03-02T01:59:14;13.00;;;9.38;;
21309;SDS011;10814;51.722;8.772;2024-03-02T02:01:40;11.80;;;8.90;;
21309;SDS011;10814;51.722;8.772;2024-03-02T02:04:06;10.23;;;8.07;;
21309;SDS011;10814;51.722;8.772;2024-03-02T02:06:32;12.68;;;9.80;;
21309;SDS011;10814;51.722;8.772;2024-03-02T02:08:58;12.40;;;8.73;;
21309;SDS011;10814;51.722;8.772;2024-03-02T02:11:24;10.73;;;8.68;;
21309;SDS011;10814;51.722;8.772;2024-03-02T02:13:50;12.70;;;9.23;;
21309;SDS011;10814;51.722;8.772;2024-03-02T02:16:15;11.15;;;8.57;;
21309;SDS011;10814;51.722;8.772;2024-03-02T02:18:41;13.73;;;10.02;;
21309;SDS011;10814;51.722;8.772;2024-03-02T02:21:07;11.77;;;9.43;;
21309;SDS011;10814;51.722;8.772;2024-03-02T02:23:32;11.90;;;8.70;;
21309;SDS011;10814;51.722;8.772;2024-03-02T02:25:58;12.00;;;8.68;;
21309;SDS011;10814;51.722;8.772;2024-03-02T02:28:24;14.02;;;9.43;;
21309;SDS011;10814;51.722;8.772;2024-03-02T02:30:49;12.50;;;9.32;;
21309;SDS011;10814;51.722;8.772;2024-03-02T02:33:15;12.02;;;8.93;;
21309;SDS011;10814;51.722;8.772;2024-03-02T02:35:40;13.77;;;10.35;;
21309;SDS011;10814;51.722;8.772;2024-03-02T02:38:06;12.73;;;10.18;;
21309;SDS011;10814;51.722;8.772;2024-03-02T02:40:32;14.23;;;10.95;;
21309;SDS011;10814;51.722;8.772;2024-03-02T02:42:58;14.68;;;10.82;;
21309;SDS011;10814;51.722;8.772;2024-03-02T02:45:26;14.60;;;11.38;;
21309;SDS011;10814;51.722;8.772;2024-03-02T02:47:52;14.70;;;11.18;;
21309;SDS011;10814;51.722;8.772;2024-03-02T02:50:17;16.33;;;11.70;;
21309;SDS011;10814;51.722;8.772;2024-03-02T02:52:43;15.68;;;12.05;;
21309;SDS011;10814;51.722;8.772;2024-03-02T02:55:10;14.60;;;11.25;;
21309;SDS011;10814;51.722;8.772;2024-03-02T02:57:37;16.00;;;11.80;;
21309;SDS011;10814;51.722;8.772;2024-03-02T03:00:10;16.85;;;12.07;;
21309;SDS011;10814;51.722;8.772;2024-03-02T03:02:47;15.77;;;11.77;;
21309;SDS011;10814;51.722;8.772;2024-03-02T03:05:14;15.68;;;12.00;;
21309;SDS011;10814;51.722;8.772;2024-03-02T03:07:40;14.75;;;11.25;;
21309;SDS011;10814;51.722;8.772;2024-03-02T03:10:07;16.52;;;12.35;;
21309;SDS011;10814;51.722;8.772;2024-03-02T03:12:33;16.75;;;12.60;;
21309;SDS011;10814;51.722;8.772;2024-03-02T03:14:59;15.27;;;11.93;;
21309;SDS011;10814;51.722;8.772;2024-03-02T03:17:26;17.20;;;13.18;;
21309;SDS011;10814;51.722;8.772;2024-03-02T03:19:52;17.55;;;12.77;;
21309;SDS011;10814;51.722;8.772;2024-03-02T03:22:18;17.02;;;12.65;;
21309;SDS011;10814;51.722;8.772;2024-03-02T03:24:44;16.42;;;12.88;;
21309;SDS011;10814;51.722;8.772;2024-03-02T03:27:10;16.65;;;12.93;;
21309;SDS011;10814;51.722;8.772;2024-03-02T03:29:36;18.08;;;13.15;;
21309;SDS011;10814;51.722;8.772;2024-03-02T03:32:02;17.23;;;12.13;;
21309;SDS011;10814;51.722;8.772;2024-03-02T03:34:29;16.98;;;12.88;;
21309;SDS011;10814;51.722;8.772;2024-03-02T03:36:57;18.92;;;13.32;;
21309;SDS011;10814;51.722;8.772;2024-03-02T03:39:23;16.92;;;12.82;;
21309;SDS011;10814;51.722;8.772;2024-03-02T03:41:49;17.38;;;12.85;;
21309;SDS011;10814;51.722;8.772;2024-03-02T03:44:14;17.60;;;12.90;;
21309;SDS011;10814;51.722;8.772;2024-03-02T03:46:40;18.05;;;13.73;;
21309;SDS011;10814;51.722;8.772;2024-03-02T03:49:06;17.98;;;13.57;;
21309;SDS011;10814;51.722;8.772;2024-03-02T03:51:32;17.83;;;12.98;;
21309;SDS011;10814;51.722;8.772;2024-03-02T03:53:58;16.40;;;12.80;;
21309;SDS011;10814;51.722;8.772;2024-03-02T03:56:24;15.70;;;12.65;;
21309;SDS011;10814;51.722;8.772;2024-03-02T03:58:50;16.83;;;12.70;;
21309;SDS011;10814;51.722;8.772;2024-03-02T04:01:16;16.40;;;12.45;;
21309;SDS011;10814;51.722;8.772;2024-03-02T04:03:41;16.25;;;12.63;;
21309;SDS011;10814;51.722;8.772;2024-03-02T04:06:07;16.50;;;12.68;;
21309;SDS011;10814;51.722;8.772;2024-03-02T04:08:33;15.95;;;12.73;;
21309;SDS011;10814;51.722;8.772;2024-03-02T04:10:58;16.65;;;12.63;;
21309;SDS011;10814;51.722;8.772;2024-03-02T04:13:24;16.08;;;12.35;;
21309;SDS011;10814;51.722;8.772;2024-03-02T04:15:49;17.70;;;13.18;;
21309;SDS011;10814;51.722;8.772;2024-03-02T04:18:15;16.40;;;12.57;;
21309;SDS011;10814;51.722;8.772;2024-03-02T04:20:41;16.33;;;12.48;;
21309;SDS011;10814;51.722;8.772;2024-03-02T04:23:07;18.23;;;13.23;;
21309;SDS011;10814;51.722;8.772;2024-03-02T04:25:32;15.77;;;12.10;;
21309;SDS011;10814;51.722;8.772;2024-03-02T04:27:58;17.50;;;12.75;;
21309;SDS011;10814;51.722;8.772;2024-03-02T04:30:24;16.17;;;12.55;;
21309;SDS011;10814;51.722;8.772;2024-03-02T04:32:50;17.63;;;12.43;;
21309;SDS011;10814;51.722;8.772;2024-03-02T04:35:16;18.55;;;12.77;;
21309;SDS011;10814;51.722;8.772;2024-03-02T04:37:41;18.17;;;12.82;;
21309;SDS011;10814;51.722;8.772;2024-03-02T04:40:07;16.50;;;13.63;;
21309;SDS011;10814;51.722;8.772;2024-03-02T04:42:33;18.13;;;13.20;;
21309;SDS011;10814;51.722;8.772;2024-03-02T04:45:00;16.92;;;12.07;;
21309;SDS011;10814;51.722;8.772;2024-03-02T04:47:25;17.58;;;13.43;;
21309;SDS011;10814;51.722;8.772;2024-03-02T04:49:51;18.17;;;13.10;;
21309;SDS011;10814;51.722;8.772;2024-03-02T04:52:16;16.83;;;13.30;;
21309;SDS011;10814;51.722;8.772;2024-03-02T04:54:42;19.13;;;13.38;;
21309;SDS011;10814;51.722;8.772;2024-03-02T04:57:27;16.95;;;12.93;;
21309;SDS011;10814;51.722;8.772;2024-03-02T04:59:52;16.05;;;12.38;;
21309;SDS011;10814;51.722;8.772;2024-03-02T05:02:18;17.48;;;12.25;;
21309;SDS011;10814;51.722;8.772;2024-03-02T05:04:44;16.88;;;13.10;;
21309;SDS011;10814;51.722;8.772;2024-03-02T05:07:09;16.70;;;12.98;;
21309;SDS011;10814;51.722;8.772;2024-03-02T05:09:35;16.95;;;12.60;;
21309;SDS011;10814;51.722;8.772;2024-03-02T05:12:01;16.50;;;13.00;;
21309;SDS011;10814;51.722;8.772;2024-03-02T05:14:58;17.77;;;12.85;;
21309;SDS011;10814;51.722;8.772;2024-03-02T05:17:24;18.00;;;13.13;;
21309;SDS011;10814;51.722;8.772;2024-03-02T05:19:49;16.23;;;12.45;;
21309;SDS011;10814;51.722;8.772;2024-03-02T05:22:15;17.38;;;12.80;;
21309;SDS011;10814;51.722;8.772;2024-03-02T05:24:41;18.25;;;13.68;;
21309;SDS011;10814;51.722;8.772;2024-03-02T05:27:07;17.77;;;13.43;;
21309;SDS011;10814;51.722;8.772;2024-03-02T05:29:32;18.85;;;13.30;;
21309;SDS011;10814;51.722;8.772;2024-03-02T05:31:58;16.85;;;13.13;;
21309;SDS011;10814;51.722;8.772;2024-03-02T05:34:23;18.40;;;13.88;;
21309;SDS011;10814;51.722;8.772;2024-03-02T05:36:49;19.08;;;13.77;;
21309;SDS011;10814;51.722;8.772;2024-03-02T05:39:15;19.38;;;13.68;;
21309;SDS011;10814;51.722;8.772;2024-03-02T05:41:40;18.02;;;13.20;;
21309;SDS011;10814;51.722;8.772;2024-03-02T05:44:06;18.63;;;13.00;;
21309;SDS011;10814;51.722;8.772;2024-03-02T05:46:32;21.77;;;15.00;;
21309;SDS011;10814;51.722;8.772;2024-03-02T05:48:58;19.23;;;14.50;;
21309;SDS011;10814;51.722;8.772;2024-03-02T05:51:24;21.00;;;14.35;;
21309;SDS011;10814;51.722;8.772;2024-03-02T05:53:50;20.55;;;14.90;;
21309;SDS011;10814;51.722;8.772;2024-03-02T05:56:15;20.60;;;14.65;;
21309;SDS011;10814;51.722;8.772;2024-03-02T05:58:41;20.02;;;14.75;;
21309;SDS011;10814;51.722;8.772;2024-03-02T06:01:26;20.80;;;14.50;;
21309;SDS011;10814;51.722;8.772;2024-03-02T06:03:56;19.95;;;13.98;;
21309;SDS011;10814;51.722;8.772;2024-03-02T06:06:23;18.70;;;13.63;;
21309;SDS011;10814;51.722;8.772;2024-03-02T06:08:49;18.52;;;13.90;;
21309;SDS011;10814;51.722;8.772;2024-03-02T06:11:16;20.33;;;14.32;;
21309;SDS011;10814;51.722;8.772;2024-03-02T06:13:41;19.73;;;14.45;;
21309;SDS011;10814;51.722;8.772;2024-03-02T06:16:07;20.05;;;14.32;;
21309;SDS011;10814;51.722;8.772;2024-03-02T06:18:33;17.92;;;13.25;;
21309;SDS011;10814;51.722;8.772;2024-03-02T06:20:59;20.20;;;14.52;;
21309;SDS011;10814;51.722;8.772;2024-03-02T06:23:26;20.05;;;15.15;;
21309;SDS011;10814;51.722;8.772;2024-03-02T06:25:52;21.40;;;14.68;;
21309;SDS011;10814;51.722;8.772;2024-03-02T06:28:17;24.70;;;15.77;;
21309;SDS011;10814;51.722;8.772;2024-03-02T06:30:43;19.92;;;14.55;;
21309;SDS011;10814;51.722;8.772;2024-03-02T06:33:10;19.95;;;15.18;;
21309;SDS011;10814;51.722;8.772;2024-03-02T06:35:36;21.45;;;15.05;;
21309;SDS011;10814;51.722;8.772;2024-03-02T06:38:01;20.55;;;15.10;;
21309;SDS011;10814;51.722;8.772;2024-03-02T06:40:27;21.58;;;16.23;;
21309;SDS011;10814;51.722;8.772;2024-03-02T06:42:53;20.35;;;15.13;;
21309;SDS011;10814;51.722;8.772;2024-03-02T06:45:18;22.08;;;15.70;;
21309;SDS011;10814;51.722;8.772;2024-03-02T06:47:44;20.33;;;15.20;;
21309;SDS011;10814;51.722;8.772;2024-03-02T06:50:10;22.45;;;15.35;;
21309;SDS011;10814;51.722;8.772;2024-03-02T06:52:36;20.67;;;15.25;;
21309;SDS011;10814;51.722;8.772;2024-03-02T06:55:02;23.85;;;16.63;;
21309;SDS011;10814;51.722;8.772;2024-03-02T06:57:29;22.00;;;16.10;;
21309;SDS011;10814;51.722;8.772;2024-03-02T06:59:55;22.83;;;16.10;;
21309;SDS011;10814;51.722;8.772;2024-03-02T07:02:23;21.30;;;15.88;;
21309;SDS011;10814;51.722;8.772;2024-03-02T07:04:50;22.65;;;15.73;;
21309;SDS011;10814;51.722;8.772;2024-03-02T07:07:16;21.73;;;15.50;;
21309;SDS011;10814;51.722;8.772;2024-03-02T07:09:42;21.23;;;14.95;;
21309;SDS011;10814;51.722;8.772;2024-03-02T07:12:07;20.88;;;15.43;;
21309;SDS011;10814;51.722;8.772;2024-03-02T07:14:33;23.90;;;15.88;;
21309;SDS011;10814;51.722;8.772;2024-03-02T07:17:18;21.90;;;16.02;;
21309;SDS011;10814;51.722;8.772;2024-03-02T07:19:43;23.55;;;16.17;;
21309;SDS011;10814;51.722;8.772;2024-03-02T07:22:09;21.23;;;15.57;;
21309;SDS011;10814;51.722;8.772;2024-03-02T07:24:41;21.45;;;15.60;;
21309;SDS011;10814;51.722;8.772;2024-03-02T07:27:07;22.27;;;16.17;;
21309;SDS011;10814;51.722;8.772;2024-03-02T07:29:34;21.23;;;15.20;;
21309;SDS011;10814;51.722;8.772;2024-03-02T07:32:00;21.90;;;15.23;;
21309;SDS011;10814;51.722;8.772;2024-03-02T07:34:26;22.13;;;15.57;;
21309;SDS011;10814;51.722;8.772;2024-03-02T07:36:54;22.35;;;15.85;;
21309;SDS011;10814;51.722;8.772;2024-03-02T07:39:20;21.85;;;15.52;;
21309;SDS011;10814;51.722;8.772;2024-03-02T07:41:46;23.00;;;15.80;;
21309;SDS011;10814;51.722;8.772;2024-03-02T07:44:12;22.83;;;16.30;;
21309;SDS011;10814;51.722;8.772;2024-03-02T07:46:40;21.52;;;15.52;;
21309;SDS011;10814;51.722;8.772;2024-03-02T07:49:06;22.17;;;15.88;;
21309;SDS011;10814;51.722;8.772;2024-03-02T07:51:33;20.92;;;14.93;;
21309;SDS011;10814;51.722;8.772;2024-03-02T07:53:58;20.35;;;15.23;;
21309;SDS011;10814;51.722;8.772;2024-03-02T07:56:24;20.75;;;15.48;;
21309;SDS011;10814;51.722;8.772;2024-03-02T07:58:50;21.45;;;15.05;;
21309;SDS011;10814;51.722;8.772;2024-03-02T08:01:15;22.80;;;16.42;;
21309;SDS011;10814;51.722;8.772;2024-03-02T08:03:42;20.55;;;15.43;;
21309;SDS011;10814;51.722;8.772;2024-03-02T08:06:13;20.10;;;14.93;;
21309;SDS011;10814;51.722;8.772;2024-03-02T08:08:39;21.38;;;15.32;;
21309;SDS011;10814;51.722;8.772;2024-03-02T08:11:05;21.48;;;15.10;;
21309;SDS011;10814;51.722;8.772;2024-03-02T08:13:31;21.85;;;15.02;;
21309;SDS011;10814;51.722;8.772;2024-03-02T08:15:57;21.60;;;14.98;;
21309;SDS011;10814;51.722;8.772;2024-03-02T08:18:23;20.83;;;14.50;;
21309;SDS011;10814;51.722;8.772;2024-03-02T08:20:49;23.85;;;15.95;;
21309;SDS011;10814;51.722;8.772;2024-03-02T08:23:14;20.45;;;15.18;;
21309;SDS011;10814;51.722;8.772;2024-03-02T08:25:40;21.48;;;14.98;;
21309;SDS011;10814;51.722;8.772;2024-03-02T08:28:06;20.60;;;14.75;;
21309;SDS011;10814;51.722;8.772;2024-03-02T08:30:32;20.30;;;14.13;;
21309;SDS011;10814;51.722;8.772;2024-03-02T08:32:57;19.40;;;14.05;;
21309;SDS011;10814;51.722;8.772;2024-03-02T08:35:23;20.70;;;14.73;;
21309;SDS011;10814;51.722;8.772;2024-03-02T08:37:49;20.27;;;14.77;;
21309;SDS011;10814;51.722;8.772;2024-03-02T08:40:14;20.05;;;13.77;;
21309;SDS011;10814;51.722;8.772;2024-03-02T08:42:40;19.08;;;14.27;;
21309;SDS011;10814;51.722;8.772;2024-03-02T08:45:06;17.50;;;13.35;;
21309;SDS011;10814;51.722;8.772;2024-03-02T08:47:32;16.80;;;12.40;;
21309;SDS011;10814;51.722;8.772;2024-03-02T08:49:59;16.58;;;12.68;;
21309;SDS011;10814;51.722;8.772;2024-03-02T08:52:25;18.98;;;11.15;;
21309;SDS011;10814;51.722;8.772;2024-03-02T08:54:51;19.65;;;11.10;;
21309;SDS011;10814;51.722;8.772;2024-03-02T08:57:16;18.88;;;12.07;;
21309;SDS011;10814;51.722;8.772;2024-03-02T08:59:42;16.52;;;11.40;;
21309;SDS011;10814;51.722;8.772;2024-03-02T09:02:15;17.17;;;11.60;;
21309;SDS011;10814;51.722;8.772;2024-03-02T09:04:41;18.13;;;12.05;;
21309;SDS011;10814;51.722;8.772;2024-03-02T09:07:06;16.08;;;11.27;;
21309;SDS011;10814;51.722;8.772;2024-03-02T09:09:32;16.67;;;11.23;;
21309;SDS011;10814;51.722;8.772;2024-03-02T09:11:58;15.10;;;11.63;;
21309;SDS011;10814;51.722;8.772;2024-03-02T09:14:24;14.38;;;10.93;;
21309;SDS011;10814;51.722;8.772;2024-03-02T09:16:49;13.93;;;10.55;;
21309;SDS011;10814;51.722;8.772;2024-03-02T09:19:15;15.95;;;10.40;;
21309;SDS011;10814;51.722;8.772;2024-03-02T09:21:41;16.70;;;10.90;;
21309;SDS011;10814;51.722;8.772;2024-03-02T09:24:07;15.02;;;9.90;;
21309;SDS011;10814;51.722;8.772;2024-03-02T09:26:33;14.30;;;10.45;;
21309;SDS011;10814;51.722;8.772;2024-03-02T09:28:58;13.23;;;9.70;;
21309;SDS011;10814;51.722;8.772;2024-03-02T09:31:24;12.50;;;9.75;;
21309;SDS011;10814;51.722;8.772;2024-03-02T09:33:49;13.90;;;9.45;;
21309;SDS011;10814;51.722;8.772;2024-03-02T09:36:18;14.95;;;10.27;;
21309;SDS011;10814;51.722;8.772;2024-03-02T09:38:45;12.63;;;9.43;;
21309;SDS011;10814;51.722;8.772;2024-03-02T09:41:11;13.35;;;9.45;;
21309;SDS011;10814;51.722;8.772;2024-03-02T09:43:37;13.27;;;9.65;;
21309;SDS011;10814;51.722;8.772;2024-03-02T09:46:03;13.15;;;9.65;;
21309;SDS011;10814;51.722;8.772;2024-03-02T09:48:29;11.77;;;8.45;;
21309;SDS011;10814;51.722;8.772;2024-03-02T09:50:55;13.02;;;8.75;;
21309;SDS011;10814;51.722;8.772;2024-03-02T09:53:21;10.52;;;7.60;;
21309;SDS011;10814;51.722;8.772;2024-03-02T09:55:48;10.88;;;7.25;;
21309;SDS011;10814;51.722;8.772;2024-03-02T09:58:14;10.80;;;7.68;;
21309;SDS011;10814;51.722;8.772;2024-03-02T10:00:39;11.77;;;7.70;;
21309;SDS011;10814;51.722;8.772;2024-03-02T10:03:05;13.20;;;7.70;;
21309;SDS011;10814;51.722;8.772;2024-03-02T10:05:36;10.30;;;7.30;;
21309;SDS011;10814;51.722;8.772;2024-03-02T10:08:02;10.77;;;7.20;;
21309;SDS011;10814;51.722;8.772;2024-03-02T10:10:35;10.55;;;7.13;;
21309;SDS011;10814;51.722;8.772;2024-03-02T10:13:04;10.98;;;7.43;;
21309;SDS011;10814;51.722;8.772;2024-03-02T10:15:32;9.98;;;6.30;;
21309;SDS011;10814;51.722;8.772;2024-03-02T10:17:58;9.32;;;6.70;;
21309;SDS011;10814;51.722;8.772;2024-03-02T10:20:26;10.82;;;6.60;;
21309;SDS011;10814;51.722;8.772;2024-03-02T10:23:18;10.07;;;6.68;;
21309;SDS011;10814;51.722;8.772;2024-03-02T10:25:44;10.00;;;6.65;;
21309;SDS011;10814;51.722;8.772;2024-03-02T10:28:10;9.77;;;6.35;;
21309;SDS011;10814;51.722;8.772;2024-03-02T10:30:35;9.93;;;6.10;;
21309;SDS011;10814;51.722;8.772;2024-03-02T10:33:02;9.40;;;6.72;;
21309;SDS011;10814;51.722;8.772;2024-03-02T10:35:28;8.52;;;6.18;;
21309;SDS011;10814;51.722;8.772;2024-03-02T10:37:53;8.68;;;6.20;;
21309;SDS011;10814;51.722;8.772;2024-03-02T10:40:23;8.52;;;5.90;;
21309;SDS011;10814;51.722;8.772;2024-03-02T10:42:51;8.77;;;6.10;;
21309;SDS011;10814;51.722;8.772;2024-03-02T10:45:17;8.38;;;5.82;;
21309;SDS011;10814;51.722;8.772;2024-03-02T10:47:46;7.43;;;5.13;;
21309;SDS011;10814;51.722;8.772;2024-03-02T10:50:14;7.90;;;5.68;;
21309;SDS011;10814;51.722;8.772;2024-03-02T10:52:40;8.82;;;5.50;;
21309;SDS011;10814;51.722;8.772;2024-03-02T10:55:06;9.30;;;6.28;;
21309;SDS011;10814;51.722;8.772;2024-03-02T10:57:53;7.35;;;5.18;;
21309;SDS011;10814;51.722;8.772;2024-03-02T11:00:21;7.70;;;5.25;;
21309;SDS011;10814;51.722;8.772;2024-03-02T11:02:58;7.60;;;4.63;;
21309;SDS011;10814;51.722;8.772;2024-03-02T11:05:36;8.10;;;5.18;;
21309;SDS011;10814;51.722;8.772;2024-03-02T11:08:07;8.57;;;5.30;;
21309;SDS011;10814;51.722;8.772;2024-03-02T11:10:38;6.50;;;4.32;;
21309;SDS011;10814;51.722;8.772;2024-03-02T11:13:11;5.78;;;4.40;;
21309;SDS011;10814;51.722;8.772;2024-03-02T11:15:37;5.72;;;3.75;;
21309;SDS011;10814;51.722;8.772;2024-03-02T11:18:07;7.07;;;4.40;;
21309;SDS011;10814;51.722;8.772;2024-03-02T11:20:35;5.75;;;3.78;;
21309;SDS011;10814;51.722;8.772;2024-03-02T11:23:06;7.35;;;4.30;;
21309;SDS011;10814;51.722;8.772;2024-03-02T11:25:33;6.35;;;4.20;;
21309;SDS011;10814;51.722;8.772;2024-03-02T11:28:00;6.15;;;4.32;;
21309;SDS011;10814;51.722;8.772;2024-03-02T11:32:59;6.32;;;4.50;;
21309;SDS011;10814;51.722;8.772;2024-03-02T11:35:37;7.45;;;4.40;;
21309;SDS011;10814;51.722;8.772;2024-03-02T11:38:07;6.88;;;4.38;;
21309;SDS011;10814;51.722;8.772;2024-03-02T11:40:34;7.85;;;5.05;;
21309;SDS011;10814;51.722;8.772;2024-03-02T11:43:00;7.57;;;4.57;;
21309;SDS011;10814;51.722;8.772;2024-03-02T11:45:26;7.45;;;4.60;;
21309;SDS011;10814;51.722;8.772;2024-03-02T11:47:57;6.10;;;4.30;;
21309;SDS011;10814;51.722;8.772;2024-03-02T11:50:29;7.15;;;4.63;;
21309;SDS011;10814;51.722;8.772;2024-03-02T11:52:59;6.28;;;4.00;;
21309;SDS011;10814;51.722;8.772;2024-03-02T11:55:53;6.82;;;4.05;;
21309;SDS011;10814;51.722;8.772;2024-03-02T11:58:29;9.63;;;3.88;;
21309;SDS011;10814;51.722;8.772;2024-03-02T12:00:59;6.45;;;4.22;;
21309;SDS011;10814;51.722;8.772;2024-03-02T12:03:46;6.10;;;4.03;;
21309;SDS011;10814;51.722;8.772;2024-03-02T12:06:23;5.88;;;4.07;;
21309;SDS011;10814;51.722;8.772;2024-03-02T12:08:56;5.40;;;3.45;;
21309;SDS011;10814;51.722;8.772;2024-03-02T12:11:23;6.93;;;4.38;;
21309;SDS011;10814;51.722;8.772;2024-03-02T12:14:18;7.90;;;4.57;;
21309;SDS011;10814;51.722;8.772;2024-03-02T12:16:47;5.75;;;3.72;;
21309;SDS011;10814;51.722;8.772;2024-03-02T12:19:16;7.45;;;4.15;;
21309;SDS011;10814;51.722;8.772;2024-03-02T12:21:50;4.97;;;3.47;;
21309;SDS011;10814;51.722;8.772;2024-03-02T12:24:29;7.03;;;3.92;;
21309;SDS011;10814;51.722;8.772;2024-03-02T12:27:07;6.30;;;3.80;;
21309;SDS011;10814;51.722;8.772;2024-03-02T12:30:03;5.00;;;3.28;;
21309;SDS011;10814;51.722;8.772;2024-03-02T12:32:48;4.32;;;2.83;;
21309;SDS011;10814;51.722;8.772;2024-03-02T12:35:19;5.30;;;3.25;;
21309;SDS011;10814;51.722;8.772;2024-03-02T12:38:07;5.72;;;3.42;;
21309;SDS011;10814;51.722;8.772;2024-03-02T12:40:36;6.65;;;3.97;;
21309;SDS011;10814;51.722;8.772;2024-03-02T12:43:29;5.00;;;2.90;;
21309;SDS011;10814;51.722;8.772;2024-03-02T12:46:01;4.63;;;2.78;;
21309;SDS011;10814;51.722;8.772;2024-03-02T12:48:30;4.38;;;2.78;;
21309;SDS011;10814;51.722;8.772;2024-03-02T12:50:59;5.10;;;2.70;;
21309;SDS011;10814;51.722;8.772;2024-03-02T12:53:30;4.32;;;2.88;;
21309;SDS011;10814;51.722;8.772;2024-03-02T12:56:02;5.22;;;3.22;;
21309;SDS011;10814;51.722;8.772;2024-03-02T13:02:07;5.30;;;3.10;;
21309;SDS011;10814;51.722;8.772;2024-03-02T13:04:51;4.88;;;2.83;;
21309;SDS011;10814;51.722;8.772;2024-03-02T13:07:29;4.55;;;2.65;;
21309;SDS011;10814;51.722;8.772;2024-03-02T13:09:59;6.22;;;2.90;;
21309;SDS011;10814;51.722;8.772;2024-03-02T13:12:26;5.68;;;3.00;;
21309;SDS011;10814;51.722;8.772;2024-03-02T13:15:05;4.28;;;2.65;;
21309;SDS011;10814;51.722;8.772;2024-03-02T13:17:35;4.45;;;2.28;;
21309;SDS011;10814;51.722;8.772;2024-03-02T13:20:04;3.65;;;2.15;;
21309;SDS011;10814;51.722;8.772;2024-03-02T13:22:51;4.40;;;2.30;;
21309;SDS011;10814;51.722;8.772;2024-03-02T13:25:17;3.80;;;2.13;;
21309;SDS011;10814;51.722;8.772;2024-03-02T13:27:43;3.58;;;2.13;;
21309;SDS011;10814;51.722;8.772;2024-03-02T13:30:11;3.88;;;2.28;;
21309;SDS011;10814;51.722;8.772;2024-03-02T13:32:39;8.13;;;2.33;;
21309;SDS011;10814;51.722;8.772;2024-03-02T13:35:09;2.85;;;2.00;;
21309;SDS011;10814;51.722;8.772;2024-03-02T13:37:36;4.00;;;2.00;;
21309;SDS011;10814;51.722;8.772;2024-03-02T13:40:04;4.03;;;2.00;;
21309;SDS011;10814;51.722;8.772;2024-03-02T13:42:32;3.63;;;2.20;;
21309;SDS011;10814;51.722;8.772;2024-03-02T13:45:01;4.53;;;1.90;;
21309;SDS011;10814;51.722;8.772;2024-03-02T13:47:30;2.85;;;1.83;;
21309;SDS011;10814;51.722;8.772;2024-03-02T13:49:56;2.72;;;1.80;;
21309;SDS011;10814;51.722;8.772;2024-03-02T13:52:47;3.47;;;1.95;;
21309;SDS011;10814;51.722;8.772;2024-03-02T13:55:19;3.05;;;1.70;;
21309;SDS011;10814;51.722;8.772;2024-03-02T13:57:48;3.20;;;2.20;;
21309;SDS011;10814;51.722;8.772;2024-03-02T14:00:19;3.50;;;2.10;;
21309;SDS011;10814;51.722;8.772;2024-03-02T14:02:46;3.25;;;1.67;;
21309;SDS011;10814;51.722;8.772;2024-03-02T14:05:15;3.10;;;1.88;;
21309;SDS011;10814;51.722;8.772;2024-03-02T14:07:41;2.83;;;1.80;;
21309;SDS011;10814;51.722;8.772;2024-03-02T14:10:07;3.15;;;1.85;;
21309;SDS011;10814;51.722;8.772;2024-03-02T14:12:33;2.50;;;1.48;;
21309;SDS011;10814;51.722;8.772;2024-03-02T14:14:58;5.30;;;2.10;;
21309;SDS011;10814;51.722;8.772;2024-03-02T14:17:30;2.55;;;1.70;;
21309;SDS011;10814;51.722;8.772;2024-03-02T14:19:58;3.25;;;1.52;;
21309;SDS011;10814;51.722;8.772;2024-03-02T14:22:24;2.92;;;1.60;;
21309;SDS011;10814;51.722;8.772;2024-03-02T14:24:50;1.80;;;1.20;;
21309;SDS011;10814;51.722;8.772;2024-03-02T14:27:16;2.65;;;1.40;;
21309;SDS011;10814;51.722;8.772;2024-03-02T14:29:44;2.42;;;1.50;;
21309;SDS011;10814;51.722;8.772;2024-03-02T14:32:10;2.38;;;1.40;;
21309;SDS011;10814;51.722;8.772;2024-03-02T14:34:36;3.08;;;1.40;;
21309;SDS011;10814;51.722;8.772;2024-03-02T14:37:01;4.32;;;1.85;;
21309;SDS011;10814;51.722;8.772;2024-03-02T14:39:28;2.67;;;1.75;;
21309;SDS011;10814;51.722;8.772;2024-03-02T14:41:54;3.05;;;1.75;;
21309;SDS011;10814;51.722;8.772;2024-03-02T14:44:21;3.42;;;1.75;;
21309;SDS011;10814;51.722;8.772;2024-03-02T14:46:54;4.07;;;2.30;;
21309;SDS011;10814;51.722;8.772;2024-03-02T14:49:24;3.65;;;2.00;;
21309;SDS011;10814;51.722;8.772;2024-03-02T14:51:59;4.15;;;2.35;;